Time;durP1;ratioP1;P1;durP2;ratioP2;P2;SDS_P1;SDS_P2;PMS_P1;PMS_P2;Temp;Humidity;BMP_temperature;BMP_pressure;BME280_temperature;BME280_humidity;BME280_pressure;Samples;Min_cycle;Max_cycle;Signal;HPM_P1;HPM_P2
2022/12/04 00:01:18;;;;;;;56.58;24.55;;;1.80;99.90;;;;;;5025060;28;20067;-76
2022/12/04 00:03:44;;;;;;;50.03;23.33;;;1.80;99.90;;;;;;4998723;28;20437;-75
2022/12/04 00:06:12;;;;;;;52.90;24.38;;;1.80;99.90;;;;;;5012823;28;20038;-75
2022/12/04 00:08:38;;;;;;;50.00;23.63;;;1.80;99.90;;;;;;5023880;28;20049;-76
2022/12/04 00:11:07;;;;;;;53.10;23.75;;;1.80;99.90;;;;;;5017047;28;20154;-75
2022/12/04 00:13:33;;;;;;;53.97;25.50;;;1.80;99.90;;;;;;5018744;28;20034;-76
2022/12/04 00:15:59;;;;;;;53.88;24.42;;;1.80;99.90;;;;;;5012095;28;20092;-76
2022/12/04 00:18:25;;;;;;;54.72;25.00;;;1.80;99.90;;;;;;5016145;28;20056;-75
2022/12/04 00:20:51;;;;;;;50.13;24.35;;;1.80;99.90;;;;;;4998650;28;20045;-76
2022/12/04 00:23:16;;;;;;;53.83;24.45;;;1.80;99.90;;;;;;4995360;28;20077;-75
2022/12/04 00:25:47;;;;;;;52.70;23.30;;;1.80;99.90;;;;;;5016709;28;20041;-76
2022/12/04 00:28:16;;;;;;;48.28;22.40;;;1.80;99.90;;;;;;5014775;28;20112;-76
2022/12/04 00:30:43;;;;;;;51.50;24.80;;;1.80;99.90;;;;;;5021093;28;20580;-76
2022/12/04 00:33:09;;;;;;;55.67;26.17;;;1.80;99.90;;;;;;5019890;28;20509;-75
2022/12/04 00:35:35;;;;;;;57.28;25.15;;;1.80;99.90;;;;;;5015635;28;20041;-76
2022/12/04 00:38:01;;;;;;;60.80;25.73;;;1.80;99.90;;;;;;5022945;28;20091;-75
2022/12/04 00:40:27;;;;;;;55.50;24.88;;;1.80;99.90;;;;;;5017198;28;20124;-76
2022/12/04 00:42:53;;;;;;;56.42;25.77;;;1.80;99.90;;;;;;5043807;28;20163;-75
2022/12/04 00:45:18;;;;;;;51.33;23.58;;;1.80;99.90;;;;;;5019456;28;20112;-75
2022/12/04 00:47:44;;;;;;;51.58;23.23;;;1.80;99.90;;;;;;5018315;28;20124;-76
2022/12/04 00:50:10;;;;;;;52.78;24.23;;;1.80;99.90;;;;;;5024486;28;20095;-76
2022/12/04 00:52:36;;;;;;;53.83;24.85;;;1.80;99.90;;;;;;5022836;28;20117;-76
2022/12/04 00:55:02;;;;;;;56.42;25.38;;;1.80;99.90;;;;;;5026153;28;20116;-76
2022/12/04 00:57:27;;;;;;;56.17;24.27;;;1.80;99.90;;;;;;5001529;28;20091;-76
2022/12/04 00:59:53;;;;;;;51.63;24.02;;;1.80;99.90;;;;;;5026898;28;20417;-76
2022/12/04 01:02:19;;;;;;;56.35;25.50;;;1.80;99.90;;;;;;5033212;28;20038;-76
2022/12/04 01:04:44;;;;;;;55.83;24.60;;;1.80;99.90;;;;;;5021351;28;20050;-75
2022/12/04 01:07:10;;;;;;;55.67;26.08;;;1.80;99.90;;;;;;5019347;28;20050;-76
2022/12/04 01:09:35;;;;;;;58.30;24.40;;;1.80;99.90;;;;;;5010903;28;20033;-76
2022/12/04 01:12:01;;;;;;;55.83;25.17;;;1.80;99.90;;;;;;5029197;28;20037;-76
2022/12/04 01:14:26;;;;;;;55.65;25.30;;;1.80;99.90;;;;;;5042838;28;20034;-75
2022/12/04 01:16:52;;;;;;;56.05;25.83;;;1.80;99.90;;;;;;5013650;28;20038;-75
2022/12/04 01:19:18;;;;;;;51.28;23.98;;;1.80;99.90;;;;;;5016161;28;20044;-76
2022/12/04 01:21:43;;;;;;;52.83;25.80;;;1.80;99.90;;;;;;5022247;28;20132;-76
2022/12/04 01:24:09;;;;;;;58.95;25.08;;;1.80;99.90;;;;;;5029917;28;20129;-75
2022/12/04 01:26:34;;;;;;;57.47;26.20;;;1.80;99.90;;;;;;5025111;28;20052;-76
2022/12/04 01:29:00;;;;;;;54.83;25.33;;;1.80;99.90;;;;;;5013442;28;20133;-76
2022/12/04 01:31:26;;;;;;;60.42;26.73;;;1.80;99.90;;;;;;5019344;28;20042;-76
2022/12/04 01:33:52;;;;;;;55.90;24.85;;;1.80;99.90;;;;;;5012741;28;20042;-76
2022/12/04 01:36:21;;;;;;;57.00;25.88;;;1.80;99.90;;;;;;5014971;28;20069;-76
2022/12/04 01:38:48;;;;;;;57.20;25.48;;;1.80;99.90;;;;;;5007512;28;20072;-75
2022/12/04 01:41:15;;;;;;;56.60;25.73;;;1.80;99.90;;;;;;5023785;28;20050;-76
2022/12/04 01:43:42;;;;;;;56.47;25.83;;;1.80;99.90;;;;;;5037212;28;20042;-76
2022/12/04 01:46:08;;;;;;;60.22;27.15;;;1.80;99.90;;;;;;5014582;28;20057;-76
2022/12/04 01:48:50;;;;;;;56.97;26.17;;;1.80;99.90;;;;;;5029056;28;20037;-74
2022/12/04 01:51:20;;;;;;;58.95;25.60;;;1.80;99.90;;;;;;5027407;28;20049;-76
2022/12/04 01:53:51;;;;;;;56.83;26.38;;;1.80;99.90;;;;;;5026591;28;20371;-76
2022/12/04 01:56:20;;;;;;;52.20;25.58;;;1.80;99.90;;;;;;5017699;28;20033;-76
2022/12/04 01:58:50;;;;;;;55.90;26.48;;;1.80;99.90;;;;;;5008396;28;20168;-76
2022/12/04 02:01:15;;;;;;;56.17;26.05;;;1.80;99.90;;;;;;5026470;28;20045;-76
2022/12/04 02:03:41;;;;;;;55.97;25.25;;;1.80;99.90;;;;;;5024673;28;20037;-74
2022/12/04 02:06:07;;;;;;;55.83;25.15;;;1.80;99.90;;;;;;5024934;28;20052;-76
2022/12/04 02:08:34;;;;;;;62.70;27.63;;;1.80;99.90;;;;;;5019903;28;20045;-76
2022/12/04 02:11:24;;;;;;;57.25;26.50;;;1.80;99.90;;;;;;5018945;28;20042;-74
2022/12/04 02:14:05;;;;;;;57.60;26.08;;;1.70;99.90;;;;;;5017071;28;20176;-76
2022/12/04 02:17:03;;;;;;;59.47;26.38;;;1.80;99.90;;;;;;5019223;28;20509;-76
2022/12/04 02:19:47;;;;;;;55.53;26.17;;;1.80;99.90;;;;;;5009813;28;20056;-75
2022/12/04 02:22:49;;;;;;;59.00;27.70;;;1.80;99.90;;;;;;5013906;28;20072;-75
2022/12/04 02:25:29;;;;;;;57.85;26.17;;;1.70;99.90;;;;;;5010024;28;20047;-75
2022/12/04 02:28:08;;;;;;;58.78;27.23;;;1.80;99.90;;;;;;5007252;28;20129;-75
2022/12/04 02:30:37;;;;;;;59.38;25.80;;;1.70;99.90;;;;;;5006991;28;20091;-76
2022/12/04 02:33:20;;;;;;;60.78;27.25;;;1.80;99.90;;;;;;5002843;28;20046;-76
2022/12/04 02:36:02;;;;;;;59.33;26.88;;;1.70;99.90;;;;;;5016838;28;20539;-76
2022/12/04 02:38:36;;;;;;;63.03;27.38;;;1.70;99.90;;;;;;4995778;28;20049;-76
2022/12/04 02:41:40;;;;;;;56.63;26.73;;;1.80;99.90;;;;;;5003153;28;20089;-76
2022/12/04 02:44:20;;;;;;;59.63;28.02;;;1.70;99.90;;;;;;4995040;28;20054;-75
2022/12/04 02:46:51;;;;;;;59.97;27.77;;;1.70;99.90;;;;;;5023952;28;20065;-76
2022/12/04 02:49:24;;;;;;;61.25;28.42;;;1.70;99.90;;;;;;5020916;28;20068;-76
2022/12/04 02:51:50;;;;;;;;;;;1.70;99.90;;;;;;5026936;28;20136;-75
2022/12/04 02:54:23;;;;;;;58.22;26.38;;;1.70;99.90;;;;;;5006897;28;19932;-75
2022/12/04 02:56:51;;;;;;;58.10;27.42;;;1.70;99.90;;;;;;5020575;28;20056;-76
2022/12/04 02:59:30;;;;;;;63.10;27.58;;;1.80;99.90;;;;;;5022265;28;20050;-76
2022/12/04 03:02:00;;;;;;;59.83;26.85;;;1.70;99.90;;;;;;5011498;28;20149;-75
2022/12/04 03:04:29;;;;;;;63.42;27.92;;;1.70;99.90;;;;;;5017359;28;20076;-76
2022/12/04 03:07:01;;;;;;;58.20;26.80;;;1.70;99.90;;;;;;5024581;28;20132;-76
2022/12/04 03:09:59;;;;;;;60.55;28.13;;;1.70;99.90;;;;;;5020566;28;20512;-76
2022/12/04 03:12:40;;;;;;;64.13;28.35;;;1.70;99.90;;;;;;5036737;28;20083;-75
2022/12/04 03:15:16;;;;;;;61.75;28.52;;;1.70;99.90;;;;;;5022534;28;20042;-76
2022/12/04 03:17:52;;;;;;;65.50;28.60;;;1.70;99.90;;;;;;5016776;28;20049;-75
2022/12/04 03:20:19;;;;;;;58.72;27.83;;;1.70;99.90;;;;;;5023333;28;20087;-75
2022/12/04 03:22:52;;;;;;;60.83;27.95;;;1.70;99.90;;;;;;5024218;28;20052;-76
2022/12/04 03:25:18;;;;;;;65.93;29.58;;;1.70;99.90;;;;;;5019230;28;20053;-75
2022/12/04 03:27:56;;;;;;;58.63;26.92;;;1.70;99.90;;;;;;5045227;28;20128;-76
2022/12/04 03:30:22;;;;;;;63.92;28.45;;;1.70;99.90;;;;;;5018075;28;20077;-76
2022/12/04 03:32:57;;;;;;;60.42;27.42;;;1.70;99.90;;;;;;5023905;28;20517;-76
2022/12/04 03:35:24;;;;;;;59.05;27.70;;;1.70;99.90;;;;;;5024651;28;20088;-75
2022/12/04 03:38:05;;;;;;;58.22;27.20;;;1.70;99.90;;;;;;5030015;28;20137;-75
2022/12/04 03:40:37;;;;;;;63.20;28.38;;;1.70;99.90;;;;;;4995515;28;20401;-75
2022/12/04 03:43:07;;;;;;;;;;;1.70;99.90;;;;;;5023589;28;20088;-75
2022/12/04 03:45:36;;;;;;;61.42;27.15;;;1.70;99.90;;;;;;5018187;28;20044;-74
2022/12/04 03:48:15;;;;;;;57.95;26.45;;;1.70;99.90;;;;;;5011293;28;20034;-75
2022/12/04 03:50:49;;;;;;;62.72;27.80;;;1.70;99.90;;;;;;5004253;28;20069;-76
2022/12/04 03:53:26;;;;;;;61.65;28.33;;;1.70;99.90;;;;;;5019138;28;20037;-75
2022/12/04 03:56:03;;;;;;;60.63;27.55;;;2.50;99.90;;;;;;5022187;28;20042;-76
2022/12/04 03:58:33;;;;;;;57.85;26.90;;;1.70;99.90;;;;;;5006239;28;20103;-75
2022/12/04 04:01:02;;;;;;;57.58;26.52;;;1.70;99.90;;;;;;5017786;28;20345;-75
2022/12/04 04:03:32;;;;;;;59.00;27.88;;;1.70;99.90;;;;;;5028602;28;20045;-75
2022/12/04 04:06:35;;;;;;;57.80;26.40;;;1.70;99.90;;;;;;4995964;28;20050;-75
2022/12/04 04:09:06;;;;;;;62.42;27.27;;;1.70;99.90;;;;;;5012020;28;20050;-75
2022/12/04 04:11:43;;;;;;;59.13;27.52;;;1.70;99.90;;;;;;5034018;28;20049;-75
2022/12/04 04:25:51;;;;;;;63.58;28.88;;;1.70;99.90;;;;;;5021164;28;20131;-75
2022/12/04 04:28:38;;;;;;;61.55;28.73;;;1.70;99.90;;;;;;5027500;28;20091;-75
2022/12/04 04:31:10;;;;;;;62.80;28.88;;;1.70;99.90;;;;;;5015728;28;20039;-75
2022/12/04 04:33:47;;;;;;;59.10;26.23;;;1.70;99.90;;;;;;5024650;28;20548;-75
2022/12/04 04:36:39;;;;;;;71.18;28.60;;;1.70;99.90;;;;;;4994933;28;20277;-76
2022/12/04 04:39:18;;;;;;;60.53;26.65;;;1.70;99.90;;;;;;5020271;28;20050;-76
2022/12/04 04:41:54;;;;;;;61.92;26.92;;;1.70;99.90;;;;;;5024369;28;20041;-76
2022/12/04 04:44:46;;;;;;;60.15;27.90;;;1.70;99.90;;;;;;5026155;28;20072;-76
2022/12/04 04:47:18;;;;;;;57.03;28.15;;;1.70;99.90;;;;;;5022069;28;20112;-76
2022/12/04 04:49:46;;;;;;;;;;;1.70;99.90;;;;;;5018371;28;20490;-76
2022/12/04 04:52:12;;;;;;;61.08;27.95;;;1.70;99.90;;;;;;5024433;28;20373;-76
2022/12/04 04:54:38;;;;;;;62.28;29.30;;;1.70;99.90;;;;;;5017159;28;20120;-76
2022/12/04 04:57:04;;;;;;;59.13;27.77;;;1.70;99.90;;;;;;5022886;28;20128;-76
2022/12/04 04:59:29;;;;;;;63.97;28.27;;;1.70;99.90;;;;;;5017575;28;20487;-76
2022/12/04 05:01:55;;;;;;;63.63;28.15;;;1.70;99.90;;;;;;5044191;28;20041;-76
2022/12/04 05:04:21;;;;;;;70.93;29.15;;;1.70;99.90;;;;;;5017149;28;20064;-75
2022/12/04 05:06:47;;;;;;;67.03;28.35;;;1.70;99.90;;;;;;5023518;28;20051;-76
2022/12/04 05:09:13;;;;;;;64.03;28.85;;;1.70;99.90;;;;;;5020502;28;20126;-75
2022/12/04 05:11:39;;;;;;;64.40;28.40;;;1.60;99.90;;;;;;5016161;28;20472;-75
2022/12/04 05:14:05;;;;;;;57.60;27.40;;;1.70;99.90;;;;;;5012215;28;20054;-76
2022/12/04 05:16:31;;;;;;;61.58;27.40;;;1.70;99.90;;;;;;5027961;28;20029;-76
2022/12/04 05:21:41;;;;;;;61.95;27.13;;;1.70;99.90;;;;;;5025904;28;20053;-76
2022/12/04 05:24:08;;;;;;;64.30;28.45;;;1.60;99.90;;;;;;5013959;28;20038;-76
2022/12/04 05:26:33;;;;;;;64.32;28.27;;;1.70;99.90;;;;;;5029562;28;20092;-75
2022/12/04 05:28:59;;;;;;;59.80;27.98;;;1.70;99.90;;;;;;5017319;28;20502;-76
2022/12/04 05:31:25;;;;;;;61.30;28.00;;;1.60;99.90;;;;;;5022218;28;20394;-75
2022/12/04 05:33:50;;;;;;;61.42;27.08;;;1.70;99.90;;;;;;5022179;28;20038;-75
2022/12/04 05:36:16;;;;;;;60.85;27.77;;;1.70;99.90;;;;;;5022258;28;20099;-76
2022/12/04 05:38:41;;;;;;;62.17;27.90;;;1.70;99.90;;;;;;5025112;28;20045;-76
2022/12/04 05:41:07;;;;;;;61.40;27.35;;;1.70;99.90;;;;;;5014453;28;20718;-76
2022/12/04 05:43:33;;;;;;;64.63;28.30;;;1.60;99.90;;;;;;5012954;28;20447;-76
2022/12/04 05:46:03;;;;;;;62.88;27.73;;;1.70;99.90;;;;;;5000650;28;20128;-75
2022/12/04 05:48:29;;;;;;;59.15;27.75;;;1.70;99.90;;;;;;5021812;28;20037;-76
2022/12/04 05:50:55;;;;;;;60.13;28.00;;;1.70;99.90;;;;;;5017489;28;20084;-75
2022/12/04 05:53:21;;;;;;;60.28;27.77;;;1.60;99.90;;;;;;5006350;28;20041;-75
2022/12/04 05:55:56;;;;;;;55.67;27.15;;;1.70;99.90;;;;;;5024671;28;20482;-76
2022/12/04 05:58:22;;;;;;;62.88;28.52;;;1.70;99.90;;;;;;5006361;28;20041;-75
2022/12/04 06:00:48;;;;;;;59.60;27.63;;;1.70;99.90;;;;;;5030019;28;20107;-76
2022/12/04 06:03:13;;;;;;;59.70;27.55;;;1.70;99.90;;;;;;5026866;28;20042;-76
2022/12/04 06:05:39;;;;;;;62.53;27.30;;;1.60;99.90;;;;;;5001969;28;20045;-75
2022/12/04 06:08:04;;;;;;;63.92;27.70;;;1.60;99.90;;;;;;5024464;28;20075;-75
2022/12/04 06:10:30;;;;;;;62.10;28.33;;;1.60;99.90;;;;;;5025989;28;20071;-75
2022/12/04 06:12:56;;;;;;;60.13;27.38;;;1.60;99.90;;;;;;5008009;28;20494;-75
2022/12/04 06:15:23;;;;;;;59.78;27.23;;;1.60;99.90;;;;;;5018132;28;20393;-76
2022/12/04 06:17:49;;;;;;;59.85;27.42;;;1.60;99.90;;;;;;5029381;28;20405;-76
2022/12/04 06:20:14;;;;;;;60.53;27.50;;;1.60;99.90;;;;;;5019749;28;20034;-76
2022/12/04 06:22:40;;;;;;;60.05;27.27;;;1.60;99.90;;;;;;5025622;28;20048;-76
2022/12/04 06:25:06;;;;;;;55.05;25.15;;;1.60;99.90;;;;;;5025944;28;20535;-76
2022/12/04 06:27:32;;;;;;;66.50;28.42;;;1.60;99.90;;;;;;5029660;28;20045;-75
2022/12/04 06:29:57;;;;;;;60.38;26.95;;;1.60;99.90;;;;;;5027027;28;20037;-75
2022/12/04 06:32:23;;;;;;;56.85;27.55;;;1.60;99.90;;;;;;5030295;28;20030;-74
2022/12/04 06:34:51;;;;;;;58.28;26.83;;;1.60;99.90;;;;;;5024322;28;20103;-75
2022/12/04 06:37:17;;;;;;;62.63;27.05;;;1.60;99.90;;;;;;5017146;28;20053;-76
2022/12/04 06:39:43;;;;;;;62.75;26.85;;;1.60;99.90;;;;;;5026469;28;20065;-76
2022/12/04 06:42:08;;;;;;;57.80;27.02;;;1.60;99.90;;;;;;5025967;28;20543;-76
2022/12/04 06:44:34;;;;;;;60.38;26.83;;;1.60;99.90;;;;;;5030544;28;20037;-76
2022/12/04 06:47:00;;;;;;;56.13;26.60;;;1.60;99.90;;;;;;5022462;28;20077;-75
2022/12/04 06:49:25;;;;;;;61.78;26.45;;;1.60;99.90;;;;;;5014645;28;20513;-76
2022/12/04 06:51:51;;;;;;;60.83;27.80;;;1.60;99.90;;;;;;5024706;28;20052;-76
2022/12/04 06:54:17;;;;;;;63.45;27.73;;;1.60;99.90;;;;;;5023338;28;20051;-76
2022/12/04 06:56:42;;;;;;;65.05;27.05;;;1.60;99.90;;;;;;5025253;28;20387;-75
2022/12/04 06:59:09;;;;;;;60.42;27.25;;;1.60;99.90;;;;;;5019952;28;20045;-75
2022/12/04 07:01:35;;;;;;;62.40;27.65;;;1.60;99.90;;;;;;5029147;28;20493;-75
2022/12/04 07:04:02;;;;;;;58.28;28.65;;;1.60;99.90;;;;;;5038215;28;20048;-75
2022/12/04 07:06:33;;;;;;;57.58;25.88;;;1.60;99.90;;;;;;5021048;28;20041;-75
2022/12/04 07:09:05;;;;;;;57.97;26.65;;;1.60;99.90;;;;;;5022255;28;20050;-75
2022/12/04 07:11:31;;;;;;;;;;;1.60;99.90;;;;;;5019445;28;20038;-76
2022/12/04 07:13:57;;;;;;;57.38;26.08;;;1.60;99.90;;;;;;5021773;28;20301;-76
2022/12/04 07:16:24;;;;;;;54.40;25.67;;;1.60;99.90;;;;;;5030586;28;20508;-75
2022/12/04 07:18:52;;;;;;;60.35;26.35;;;1.60;99.90;;;;;;5022568;28;20510;-76
2022/12/04 07:21:21;;;;;;;59.55;26.98;;;1.60;99.90;;;;;;5013746;28;20123;-75
2022/12/04 07:23:52;;;;;;;57.25;26.50;;;1.60;99.90;;;;;;5019877;28;20042;-76
2022/12/04 07:26:18;;;;;;;56.75;25.50;;;1.60;99.90;;;;;;5029944;28;20049;-76
2022/12/04 07:28:44;;;;;;;55.35;24.85;;;1.60;99.90;;;;;;5024773;28;20486;-75
2022/12/04 07:31:12;;;;;;;55.17;25.45;;;1.50;99.90;;;;;;5014557;28;20479;-75
2022/12/04 07:33:39;;;;;;;58.58;25.20;;;1.60;99.90;;;;;;5025378;28;20041;-76
2022/12/04 07:36:07;;;;;;;55.47;25.45;;;1.60;99.90;;;;;;5020032;28;20512;-76
2022/12/04 07:38:33;;;;;;;53.42;25.10;;;1.60;99.90;;;;;;5012798;28;20128;-75
2022/12/04 07:41:01;;;;;;;57.88;26.35;;;1.50;99.90;;;;;;5016835;28;20053;-75
2022/12/04 07:43:28;;;;;;;53.38;25.23;;;1.60;99.90;;;;;;5030975;28;20207;-75
2022/12/04 07:45:54;;;;;;;52.90;24.75;;;1.60;99.90;;;;;;5018716;28;20053;-75
2022/12/04 07:48:19;;;;;;;57.45;25.75;;;1.60;99.90;;;;;;5022882;28;20041;-75
2022/12/04 07:50:45;;;;;;;54.83;24.80;;;1.60;99.90;;;;;;5024382;28;20049;-75
2022/12/04 07:53:11;;;;;;;50.75;24.63;;;1.60;99.90;;;;;;5016390;28;20038;-75
2022/12/04 07:55:36;;;;;;;57.35;27.02;;;1.60;99.90;;;;;;5027310;28;20117;-76
2022/12/04 07:58:02;;;;;;;58.25;26.63;;;1.60;99.90;;;;;;5020438;28;20057;-75
2022/12/04 08:00:28;;;;;;;57.08;26.30;;;1.60;99.90;;;;;;5030262;28;20073;-76
2022/12/04 08:02:54;;;;;;;52.58;24.60;;;1.60;99.90;;;;;;5023205;28;20092;-75
2022/12/04 08:05:20;;;;;;;55.60;25.35;;;1.60;99.90;;;;;;5022906;28;20099;-76
2022/12/04 08:07:46;;;;;;;56.05;26.58;;;1.60;99.90;;;;;;5021444;28;20041;-76
2022/12/04 08:10:11;;;;;;;56.78;25.10;;;1.60;99.90;;;;;;5014827;28;20494;-76
2022/12/04 08:12:37;;;;;;;57.15;25.13;;;1.60;99.90;;;;;;5026439;28;20035;-76
2022/12/04 08:15:04;;;;;;;52.88;25.13;;;1.60;99.90;;;;;;5023056;28;20041;-76
2022/12/04 08:17:30;;;;;;;55.47;25.55;;;1.60;99.90;;;;;;5023821;28;20117;-76
2022/12/04 08:19:55;;;;;;;55.70;24.90;;;1.60;99.90;;;;;;5017063;28;20479;-76
2022/12/04 08:22:22;;;;;;;56.00;25.13;;;1.60;99.90;;;;;;5024844;28;20080;-76
2022/12/04 08:24:47;;;;;;;52.33;23.33;;;1.60;99.90;;;;;;5024534;28;20094;-76
2022/12/04 08:27:13;;;;;;;56.85;25.13;;;1.60;99.90;;;;;;5024681;28;20038;-75
2022/12/04 08:29:38;;;;;;;56.35;25.13;;;1.60;99.90;;;;;;5019914;28;20056;-75
2022/12/04 08:32:04;;;;;;;52.13;25.00;;;1.60;99.90;;;;;;5011546;28;20042;-76
2022/12/04 08:34:30;;;;;;;56.28;23.63;;;1.60;99.90;;;;;;5021851;28;20033;-76
2022/12/04 08:36:56;;;;;;;56.03;24.67;;;1.60;99.90;;;;;;5021841;28;20391;-76
2022/12/04 08:39:22;;;;;;;53.70;24.45;;;1.60;99.90;;;;;;5039464;28;20034;-76
2022/12/04 08:41:47;;;;;;;56.78;25.95;;;1.60;99.90;;;;;;5018421;28;20045;-76
2022/12/04 08:44:13;;;;;;;54.35;25.00;;;1.60;99.90;;;;;;5024310;28;20053;-75
2022/12/04 08:46:39;;;;;;;50.58;23.40;;;1.60;99.90;;;;;;5008681;28;20384;-76
2022/12/04 08:49:04;;;;;;;54.75;25.08;;;1.60;99.90;;;;;;5013781;28;20046;-76
2022/12/04 08:51:34;;;;;;;56.03;24.92;;;1.60;99.90;;;;;;5037842;28;20029;-76
2022/12/04 08:54:07;;;;;;;53.10;23.90;;;1.60;99.90;;;;;;5023121;28;20444;-75
2022/12/04 08:56:34;;;;;;;55.97;24.80;;;1.60;99.90;;;;;;5023790;28;20042;-76
2022/12/04 08:59:00;;;;;;;54.00;24.85;;;1.70;99.90;;;;;;5022823;28;20047;-76
2022/12/04 09:01:27;;;;;;;55.35;24.80;;;1.70;99.90;;;;;;5041358;28;20037;-75
2022/12/04 09:03:53;;;;;;;57.85;25.90;;;1.70;99.90;;;;;;5003265;28;20045;-76
2022/12/04 09:06:19;;;;;;;60.60;27.05;;;1.70;99.90;;;;;;5020423;28;20128;-76
2022/12/04 09:08:45;;;;;;;56.63;25.60;;;1.70;99.90;;;;;;5025143;28;20056;-76
2022/12/04 09:11:12;;;;;;;57.25;25.70;;;1.70;99.90;;;;;;5016163;28;20045;-76
2022/12/04 09:13:39;;;;;;;57.25;24.85;;;1.70;99.90;;;;;;5013057;28;20046;-75
2022/12/04 09:16:10;;;;;;;54.40;25.83;;;1.70;99.90;;;;;;5023048;28;20045;-76
2022/12/04 09:18:37;;;;;;;57.88;26.40;;;1.70;99.90;;;;;;5033291;28;20042;-75
2022/12/04 09:21:06;;;;;;;56.28;25.83;;;1.70;99.90;;;;;;5023533;28;20410;-76
2022/12/04 09:23:33;;;;;;;60.72;26.67;;;1.70;99.90;;;;;;5017140;28;20124;-75
2022/12/04 09:25:58;;;;;;;60.67;27.35;;;1.70;99.90;;;;;;5022783;28;20041;-75
2022/12/04 09:28:24;;;;;;;62.42;27.65;;;1.70;99.90;;;;;;5024854;28;20482;-75
2022/12/04 09:31:02;;;;;;;60.67;26.65;;;1.70;99.90;;;;;;5014607;28;20042;-76
2022/12/04 09:33:29;;;;;;;58.15;26.80;;;1.80;99.90;;;;;;5023300;28;20036;-76
2022/12/04 09:35:57;;;;;;;63.95;27.45;;;1.80;99.90;;;;;;5003219;28;20049;-76
2022/12/04 09:38:22;;;;;;;62.55;27.33;;;1.80;99.90;;;;;;5024812;28;20116;-75
2022/12/04 09:41:12;;;;;;;59.65;26.65;;;1.80;99.90;;;;;;5008335;28;20518;-75
2022/12/04 09:43:54;;;;;;;57.05;25.60;;;1.80;99.90;;;;;;5027909;28;20046;-73
2022/12/04 09:46:43;;;;;;;58.67;25.95;;;1.80;99.90;;;;;;5006612;28;20398;-76
2022/12/04 09:49:22;;;;;;;64.97;27.35;;;1.80;99.90;;;;;;5019532;28;20053;-76
2022/12/04 09:51:49;;;;;;;58.70;26.10;;;1.80;99.90;;;;;;5028727;28;20114;-76
2022/12/04 09:54:26;;;;;;;59.90;26.52;;;1.80;99.90;;;;;;5011013;28;20074;-75
2022/12/04 09:56:57;;;;;;;59.50;26.35;;;1.80;99.90;;;;;;5026089;28;20124;-76
2022/12/04 09:59:25;;;;;;;61.63;27.53;;;1.80;99.90;;;;;;5046102;28;20106;-75
2022/12/04 10:02:00;;;;;;;63.38;27.48;;;1.80;99.90;;;;;;5017225;28;20487;-76
2022/12/04 10:04:25;;;;;;;56.95;25.75;;;1.90;99.90;;;;;;5018446;28;20041;-76
2022/12/04 10:07:11;;;;;;;59.60;27.98;;;1.90;99.90;;;;;;5024061;28;20053;-75
2022/12/04 10:09:55;;;;;;;59.72;26.08;;;1.90;99.90;;;;;;5026133;28;20537;-76
2022/12/04 10:12:21;;;;;;;60.13;27.27;;;1.90;99.90;;;;;;5022519;28;20049;-75
2022/12/04 10:15:10;;;;;;;60.40;27.90;;;1.90;99.90;;;;;;5025080;28;20572;-73
2022/12/04 10:18:17;;;;;;;56.72;25.15;;;1.90;99.90;;;;;;5028503;28;20043;-75
2022/12/04 10:21:08;;;;;;;59.03;26.73;;;1.90;99.90;;;;;;5020441;28;20478;-76
2022/12/04 10:23:55;;;;;;;62.78;26.38;;;2.00;99.90;;;;;;5016449;28;20085;-75
2022/12/04 10:26:26;;;;;;;63.55;26.60;;;2.00;99.90;;;;;;5006392;28;20041;-76
2022/12/04 10:29:11;;;;;;;64.60;27.17;;;2.00;99.90;;;;;;5022623;28;20521;-76
2022/12/04 10:31:39;;;;;;;60.90;26.70;;;2.00;99.90;;;;;;4995807;28;20045;-76
2022/12/04 10:34:12;;;;;;;56.88;25.38;;;2.00;99.90;;;;;;5025858;28;20065;-76
2022/12/04 10:36:40;;;;;;;64.70;26.23;;;2.00;99.90;;;;;;5009217;28;20069;-76
2022/12/04 10:39:35;;;;;;;58.03;26.67;;;2.00;99.90;;;;;;5021094;28;20042;-75
2022/12/04 10:42:13;;;;;;;62.20;26.70;;;2.00;99.90;;;;;;5019574;28;20167;-76
2022/12/04 10:44:39;;;;;;;62.72;26.77;;;2.00;99.90;;;;;;5015224;28;20037;-76
2022/12/04 10:47:05;;;;;;;58.72;26.42;;;2.00;99.90;;;;;;5022541;28;20060;-76
2022/12/04 10:49:34;;;;;;;56.88;25.77;;;2.10;99.90;;;;;;5022361;28;20034;-76
2022/12/04 10:52:00;;;;;;;63.15;27.05;;;2.10;99.90;;;;;;5024597;28;20053;-76
2022/12/04 10:54:25;;;;;;;59.67;25.25;;;2.10;99.90;;;;;;5017772;28;20068;-76
2022/12/04 10:57:01;;;;;;;63.47;27.63;;;2.10;99.90;;;;;;5028495;28;20037;-76
2022/12/04 10:59:29;;;;;;;56.95;26.23;;;2.10;99.90;;;;;;5013239;28;20042;-76
2022/12/04 11:02:10;;;;;;;58.05;26.67;;;2.10;99.90;;;;;;5021661;28;20055;-76
2022/12/04 11:04:36;;;;;;;57.95;27.70;;;2.20;99.90;;;;;;5042278;28;20042;-76
2022/12/04 11:07:19;;;;;;;62.90;27.42;;;2.20;99.90;;;;;;5020774;28;20044;-76
2022/12/04 11:10:05;;;;;;;59.55;27.58;;;2.20;99.90;;;;;;5026085;28;20380;-75
2022/12/04 11:12:32;;;;;;;58.83;26.95;;;2.20;99.90;;;;;;5001695;28;20057;-76
2022/12/04 11:15:07;;;;;;;58.40;26.85;;;2.20;99.90;;;;;;5021804;28;20510;-76
2022/12/04 11:17:32;;;;;;;55.25;25.55;;;2.20;99.90;;;;;;5029641;28;20056;-76
2022/12/04 11:20:08;;;;;;;59.53;26.02;;;2.20;99.90;;;;;;5024135;28;20487;-76
2022/12/04 11:22:53;;;;;;;57.45;25.92;;;2.20;99.90;;;;;;4998259;28;20390;-76
2022/12/04 11:25:21;;;;;;;52.53;25.40;;;2.30;99.90;;;;;;5020022;28;20519;-76
2022/12/04 11:27:53;;;;;;;54.83;26.58;;;2.30;99.90;;;;;;5042242;28;20076;-76
2022/12/04 11:30:24;;;;;;;49.42;23.35;;;2.20;99.90;;;;;;5023511;28;20067;-75
2022/12/04 11:32:52;;;;;;;52.30;23.58;;;2.30;99.90;;;;;;5024938;28;20037;-75
2022/12/04 11:35:24;;;;;;;53.63;24.48;;;2.20;99.90;;;;;;5020931;28;20116;-75
2022/12/04 11:38:15;;;;;;;51.22;23.80;;;2.30;99.90;;;;;;5025623;28;20041;-76
2022/12/04 11:40:50;;;;;;;46.22;23.48;;;2.30;99.90;;;;;;5020161;28;20399;-76
2022/12/04 11:43:17;;;;;;;47.83;22.58;;;2.30;99.90;;;;;;5029869;28;20060;-75
2022/12/04 11:45:58;;;;;;;48.92;22.73;;;2.30;99.90;;;;;;5022095;28;20050;-75
2022/12/04 11:48:24;;;;;;;51.15;23.05;;;2.40;99.90;;;;;;5007636;28;20042;-75
2022/12/04 11:50:53;;;;;;;48.17;22.80;;;2.40;99.90;;;;;;5024163;28;20091;-75
2022/12/04 11:53:30;;;;;;;45.00;21.73;;;2.40;99.90;;;;;;5023505;28;20557;-75
2022/12/04 11:56:14;;;;;;;46.58;21.15;;;2.40;99.90;;;;;;5026261;28;20034;-75
2022/12/04 11:59:00;;;;;;;48.03;22.73;;;2.40;99.90;;;;;;5018714;28;20521;-75
2022/12/04 12:01:44;;;;;;;42.60;20.38;;;2.40;99.90;;;;;;5028102;28;20554;-75
2022/12/04 12:04:28;;;;;;;44.95;21.02;;;2.40;99.90;;;;;;5024125;28;20050;-75
2022/12/04 12:07:15;;;;;;;46.10;21.27;;;2.40;99.90;;;;;;5008113;28;20566;-75
2022/12/04 12:09:44;;;;;;;40.83;19.83;;;2.50;99.90;;;;;;5016101;28;20567;-75
2022/12/04 12:12:18;;;;;;;41.50;19.75;;;2.50;99.90;;;;;;5018092;28;20317;-75
2022/12/04 12:14:49;;;;;;;39.95;19.45;;;2.50;99.90;;;;;;5024796;28;20041;-75
2022/12/04 12:17:22;;;;;;;42.85;20.17;;;2.50;99.90;;;;;;4999319;28;20042;-75
2022/12/04 12:20:09;;;;;;;37.38;19.10;;;2.50;99.90;;;;;;5019267;28;20052;-75
2022/12/04 12:22:58;;;;;;;40.05;19.20;;;2.50;99.90;;;;;;5010041;28;20049;-75
2022/12/04 12:25:39;;;;;;;38.90;19.02;;;2.50;99.90;;;;;;5013686;28;20045;-75
2022/12/04 12:28:42;;;;;;;38.05;18.33;;;2.50;99.90;;;;;;5024368;28;20045;-75
2022/12/04 12:31:43;;;;;;;34.97;18.17;;;2.60;99.90;;;;;;5010488;28;20096;-75
2022/12/04 12:34:18;;;;;;;34.17;16.98;;;2.60;99.90;;;;;;5006129;28;20189;-75
2022/12/04 12:36:48;;;;;;;36.80;17.52;;;2.60;99.90;;;;;;5013547;28;20049;-75
2022/12/04 12:39:21;;;;;;;33.60;17.17;;;2.60;99.90;;;;;;5036669;28;20034;-75
2022/12/04 12:41:54;;;;;;;33.55;16.42;;;2.60;99.90;;;;;;5023953;28;20188;-75
2022/12/04 12:44:25;;;;;;;;;;;2.60;99.90;;;;;;5043436;28;20056;-75
2022/12/04 12:46:59;;;;;;;33.63;15.68;;;2.60;99.90;;;;;;5025116;28;20376;-75
2022/12/04 12:49:36;;;;;;;29.75;15.45;;;2.70;99.90;;;;;;5019745;28;20114;-75
2022/12/04 12:52:17;;;;;;;33.05;16.20;;;2.70;99.90;;;;;;5041817;28;20046;-75
2022/12/04 12:54:50;;;;;;;32.63;16.13;;;2.70;99.90;;;;;;5018019;28;20068;-76
2022/12/04 12:57:36;;;;;;;33.00;15.70;;;2.70;99.90;;;;;;5009507;28;20395;-75
2022/12/04 13:00:21;;;;;;;31.35;15.18;;;2.70;99.90;;;;;;5023445;28;20520;-75
2022/12/04 13:03:21;;;;;;;30.60;15.63;;;2.70;99.90;;;;;;5018931;28;20088;-75
2022/12/04 13:05:49;;;;;;;30.67;14.95;;;2.70;99.90;;;;;;5003800;28;20095;-75
2022/12/04 13:08:21;;;;;;;34.95;16.15;;;2.70;99.90;;;;;;5013792;28;20117;-75
2022/12/04 13:10:57;;;;;;;31.90;15.50;;;2.80;99.90;;;;;;5016201;28;20498;-75
2022/12/04 13:13:26;;;;;;;30.85;15.82;;;2.80;99.90;;;;;;5008032;28;20381;-75